Ora Direzione Vento Velocita' Vento Media Vento Raffica Max. Temperatura Wind Chill Pioggia Pressione
10:50:32.0141 °(SE)13.0 Kts10.4 Kts16.5 Kts14.2 °C9.0 °C0.0 mm1015.7 Hpa
10:29:46.0123 °(ESE)9.6 Kts9.6 Kts16.5 Kts14.2 °C9.3 °C0.0 mm1016.0 Hpa
10:10:12.0140 °(SE)10.4 Kts9.6 Kts16.5 Kts14.2 °C9.3 °C0.0 mm1016.0 Hpa
09:50:20.0145 °(SE)7.0 Kts9.6 Kts16.5 Kts13.6 °C8.6 °C0.0 mm1015.9 Hpa
09:30:20.0121 °(ESE)7.8 Kts7.0 Kts13.0 Kts13.3 °C10.0 °C0.0 mm1015.8 Hpa
09:09:41.085 °(E)8.7 Kts7.8 Kts11.3 Kts12.2 °C7.9 °C0.0 mm1015.7 Hpa
08:50:19.078 °(ENE)7.0 Kts7.8 Kts11.3 Kts11.6 °C7.2 °C0.0 mm1015.7 Hpa
08:29:56.089 °(E)7.0 Kts7.8 Kts11.3 Kts10.9 °C6.4 °C0.0 mm1015.5 Hpa
08:09:31.084 °(E)7.0 Kts7.8 Kts10.4 Kts9.9 °C5.2 °C0.0 mm1015.5 Hpa
07:50:16.064 °(ENE)7.0 Kts7.0 Kts9.6 Kts8.8 °C4.8 °C0.0 mm1015.4 Hpa
07:30:00.061 °(ENE)8.7 Kts7.0 Kts8.7 Kts8.3 °C4.2 °C0.0 mm1015.2 Hpa
07:09:44.059 °(ENE)7.0 Kts7.0 Kts8.7 Kts7.7 °C3.5 °C0.0 mm1015.4 Hpa
06:49:33.055 °(NE)6.1 Kts7.0 Kts8.7 Kts7.4 °C3.2 °C0.0 mm1015.4 Hpa
06:30:26.048 °(NE)6.1 Kts6.1 Kts8.7 Kts7.3 °C4.0 °C0.0 mm1015.4 Hpa
06:10:15.047 °(NE)6.1 Kts6.1 Kts8.7 Kts7.6 °C4.3 °C0.0 mm1015.5 Hpa
05:50:05.050 °(NE)6.1 Kts6.1 Kts8.7 Kts6.8 °C3.5 °C0.0 mm1015.6 Hpa
05:30:02.054 °(NE)5.2 Kts6.1 Kts8.7 Kts7.3 °C4.0 °C0.0 mm1015.6 Hpa
05:09:54.062 °(ENE)7.0 Kts6.1 Kts7.0 Kts6.9 °C3.6 °C0.0 mm1015.5 Hpa
04:49:52.026 °(NNE)6.1 Kts5.2 Kts6.1 Kts6.6 °C4.2 °C0.0 mm1015.7 Hpa
04:29:46.021 °(NNE)4.3 Kts4.3 Kts6.1 Kts6.4 °C5.0 °C0.0 mm1015.7 Hpa